Historyczne dane pomiarowe

Dodano dane terminowe – wersja testowa.

Dane z okresu 1951-2019

Wersja bazy: 1.34 [2019-03-16, lista zmian], aktualizacja planowana na 2019-04-15

Dane meteo z obszaru Polski uzyskane na podstawie danych udostępnionych przez Instytut Meteorologii i Gospodarki Wodnej – Państwowy Instytut Badawczy.

 

Wybierz Datę:    

       

TemperaturaWilgotnośćWiatrCiśnienieOpadyŚniegCzas trwania zjawisk
 Stacja t tx tn tng RH VA  wxwx mslp ppp RRR   cm mm wxwxwxwxwxwxwx
1956-11-09 -4.9 -2.5 -7.8- 16.0- 2.0 7.7---- 0.0-- 80---------
1956-11-08 -4.2 -2.1 -5.0- 98.5- 6.0 4.0---- 0.5-- 91---------
1956-11-07 -3.5 -1.5 -5.1- 99.0- 8.0 17.0---- 64.6-- 79---------
1956-11-06 -5.0 -2.2 -9.1- 99.3- 8.0 26.0---- 70.8-- 55---------
1956-11-05 -4.2 -2.1 -5.8- 99.8- 8.0 21.3---- 18.8-- 50---------
1956-11-04 -4.3 -3.0-10.9- 98.0- 7.3 7.7---- 2.0-- 48---------
1956-11-03-10.5 -7.9-10.7- 94.8- 8.0 4.0---- 0.7-- 52---------
1956-11-02 -6.1 -0.8 -8.3- 98.3- 7.7 9.0---- 2.0-- 50---------
1956-11-01 -0.2 5.0 -4.1- 28.0- 2.0 1.0---- 0.0-- 52---------
1956-10-31 -6.7 -3.4-14.7- 42.0- 0.3 19.7---- 0.0-- 60---------
1956-10-30 -4.3 -3.1 -5.5- 99.0- 8.0 7.0---- 0.6-- 70---------
1956-10-29 -3.1 -0.4 -5.7- 99.0- 8.0 12.3---- 29.9-- 45---------
1956-10-28 -0.3 1.2 -1.9-100.0- 8.0 9.0---- 93.1-- 10---------
1956-10-27 1.0 2.4 -3.3- 99.8- 8.0 10.0---- 15.8-- 25---------
1956-10-26 -2.5 1.5 -4.1- 98.5- 8.0 8.7---- 60.5-- 5---------
1956-10-25 1.9 4.4 1.3-100.0- 8.0 14.7---- 16.1------------
1956-10-24 5.0 7.9 4.1- 92.3- 5.0 13.7---- 0.0------------
1956-10-23 6.8 9.9 4.6- 42.8- 0.0 9.0---- 0.0------------
1956-10-22 6.4 8.8 4.6- 81.5- 0.0 12.7---- 0.0------------
1956-10-21 5.3 7.7 3.2- 92.3- 4.7 9.0---- 0.0------------
1956-10-20 3.6 5.0 2.9- 99.0- 7.7 13.7---- 0.1------------
1956-10-19 4.6 6.1 3.3-100.0- 8.0 12.7---- 1.4------------
1956-10-18 4.2 4.9 3.5-100.0- 8.0 15.0---- 3.7------------
1956-10-17 5.5 7.5 1.8- 72.3- 2.0 7.3---- 0.1------------
1956-10-16 5.7 8.7 2.8- 35.8- 0.0 2.7---- 0.0------------
1956-10-15 2.2 4.8 -3.2- 43.0- 0.7 6.0---- 0.0------------
1956-10-14 1.5 3.9 0.2-100.0- 8.0 24.7---- 5.2------------
1956-10-13 0.5 5.9 -1.0-100.0- 7.7 21.3---- 1.0------------
1956-10-12 3.3 6.6 -1.3- 56.8- 3.3 14.7---- 0.0------------
1956-10-11 -0.8 2.9 -4.7- 76.3- 2.0 11.3---- 0.0-- 5---------
1956-10-10 -3.5 0.1 -4.5- 77.5- 4.3 3.7---- 0.0-- 7---------
1956-10-09 -0.9 0.1 -6.1- 99.8- 8.0 12.0---- 9.9-- 7---------
1956-10-08 -5.1 -3.7 -5.8- 97.5- 5.7 9.3---- 0.0-- 7---------
1956-10-07 -4.6 -3.8 -5.1- 98.0- 5.0 16.7---- 0.3-- 9---------
1956-10-06 -4.0 -0.1 -4.7- 98.5- 8.0 13.0---- 6.0-- 4---------
1956-10-05 -0.4 1.0 -1.3- 99.8- 8.0 16.3---- 10.0------------
1956-10-04 1.4 5.1 0.3-100.0- 8.0 8.0---- 2.3------------
1956-10-03 5.8 10.3 4.0- 88.0- 6.0 15.7---- 3.0------------
1956-10-02 10.2 12.9 8.1- 85.3- 3.7 15.3---- 0.2------------
1956-10-01 9.6 12.4 7.7- 95.8- 4.7 9.7---- 0.0------------
1956-09-30 7.4 9.7 4.7- 92.3- 2.7 8.7---- 0.0------------
1956-09-29 7.8 8.3 6.5-100.0- 8.0 16.0---- 1.0------------
1956-09-28 5.1 6.8 2.5-100.0- 8.0 16.7---- 2.1------------
1956-09-27 6.9 9.6 5.1- 99.0- 6.0 10.7---- 0.6------------
1956-09-26 5.9 9.0 3.5- 87.8- 2.7 24.3---- 0.0------------
1956-09-25 6.4 9.8 5.0- 75.3- 0.0 28.0---- 0.0------------
1956-09-24 8.1 11.7 6.9- 76.8- 0.0 12.3---- 0.0------------
1956-09-23 9.3 11.9 6.2- 60.3- 0.0 8.7---- 0.0------------
1956-09-22 7.7 11.3 6.3- 78.3- 0.0 9.0---- 0.0------------
1956-09-21 9.1 11.5 6.3- 28.3- 0.0 2.7---- 0.0------------
1956-09-20 5.7 9.5 0.3- 38.3- 5.3 4.3---- 0.0------------
1956-09-19 0.9 3.1 -1.4- 88.3- 2.7 11.7---- 0.0------------
1956-09-18 -0.4 2.0 -2.5- 90.5- 2.7 6.3---- 0.0------------
1956-09-17 1.0 2.8 0.2-100.0- 8.0 18.0---- 13.9------------
1956-09-16 4.9 9.6 2.8- 53.0- 3.0 10.0---- 0.1------------
1956-09-15 5.5 6.0 1.8- 38.0- 3.3 9.7---- 0.0------------
1956-09-14 2.8 4.9 -1.3- 63.3- 4.7 6.7---- 0.0-- 8---------
1956-09-13 -0.3 0.4 -1.5- 99.8- 8.0 21.3---- 23.0-- 2---------
1956-09-12 1.3 7.3 -0.9- 99.5- 7.7 23.3---- 6.0------------
1956-09-11 7.1 10.2 6.3- 96.0- 6.0 16.0---- 13.2------------
265.6 ms

 

Źródłem pochodzenia danych jest Instytut Meteorologii i Gospodarki Wodnej – Państwowy Instytut Badawczy. Dane Instytutu Meteorologii i Gospodarki Wodnej – Państwowego Instytutu Badawczego zostały przetworzone.

Dane źródłowe można odnaleźć na stronie https://dane.imgw.pl